AFL1415 UWLL-UUWW
Flight info
| Callsign | AFL1415 |
|---|---|
| Flight time | 1h 19m |
| Altitude | 36000 |
| Route | ARPUD1L ARPUD T750 OKSUD T787 OTKOL T784 LARNO T291 URIDU L158 DIMGI DIMGI3A |
| Aircraft | A320/M-SDE3FGHIRWY/LB1 |
Departure
| Time | 2026-04-30 17:50 |
|---|---|
| Airport | Ulyanovsk Baratayevka Airport (UWLL) |
Arrival
| Time | 2026-04-30 19:09 |
|---|---|
| Airport | Vnukovo International Airport (UUWW) |
| Time | Latitude | Longitude | Altitude | Speed | Heading |
|---|---|---|---|---|---|
| 2026-04-30 17:39 | 54.28378 | 48.23655 | 386 ft | 0 kts | 122° |
| 2026-04-30 17:41 | 54.28336 | 48.23768 | 389 ft | 15 kts | 122° |
| 2026-04-30 17:42 | 54.28201 | 48.24134 | 388 ft | 2 kts | 122° |
| 2026-04-30 17:42 | 54.28173 | 48.24185 | 387 ft | 12 kts | 146° |
| 2026-04-30 17:43 | 54.27997 | 48.24052 | 391 ft | 15 kts | 212° |
| 2026-04-30 17:44 | 54.27677 | 48.23704 | 398 ft | 20 kts | 212° |
| 2026-04-30 17:44 | 54.27264 | 48.23259 | 414 ft | 29 kts | 212° |
| 2026-04-30 17:46 | 54.26487 | 48.22425 | 432 ft | 24 kts | 212° |
| 2026-04-30 17:47 | 54.26374 | 48.22159 | 434 ft | 0 kts | 271° |
| 2026-04-30 17:48 | 54.26439 | 48.21934 | 440 ft | 4 kts | 34° |
| 2026-04-30 17:48 | 54.26449 | 48.21945 | 436 ft | 0 kts | 34° |
| 2026-04-30 17:49 | 54.26683 | 48.22198 | 428 ft | 77 kts | 32° |
| 2026-04-30 17:50 | 54.30046 | 48.25949 | 2024 ft | 169 kts | 33° |
| 2026-04-30 17:51 | 54.33619 | 48.28799 | 3377 ft | 220 kts | 351° |
| 2026-04-30 17:52 | 54.36662 | 48.22144 | 5375 ft | 264 kts | 291° |
| 2026-04-30 17:53 | 54.40465 | 48.07379 | 10018 ft | 276 kts | 294° |
| 2026-04-30 17:54 | 54.44380 | 47.94287 | 11116 ft | 329 kts | 294° |
| 2026-04-30 17:55 | 54.48597 | 47.79926 | 13908 ft | 343 kts | 291° |
| 2026-04-30 17:56 | 54.52760 | 47.64831 | 16633 ft | 356 kts | 290° |
| 2026-04-30 17:57 | 54.56003 | 47.53081 | 18552 ft | 367 kts | 289° |
| 2026-04-30 17:58 | 54.59325 | 47.40998 | 20336 ft | 375 kts | 288° |
| 2026-04-30 17:59 | 54.63862 | 47.24467 | 22657 ft | 386 kts | 288° |
| 2026-04-30 18:00 | 54.68483 | 47.07427 | 24635 ft | 397 kts | 288° |
| 2026-04-30 18:00 | 54.72006 | 46.94344 | 25770 ft | 407 kts | 288° |
| 2026-04-30 18:01 | 54.74394 | 46.85462 | 26493 ft | 414 kts | 288° |
| 2026-04-30 18:02 | 54.78079 | 46.71700 | 27544 ft | 424 kts | 288° |
| 2026-04-30 18:02 | 54.82009 | 46.57640 | 28426 ft | 444 kts | 297° |
| 2026-04-30 18:03 | 54.87575 | 46.45211 | 29263 ft | 458 kts | 303° |
| 2026-04-30 18:04 | 54.93511 | 46.32096 | 30099 ft | 467 kts | 303° |
| 2026-04-30 18:06 | 55.09259 | 45.96989 | 32566 ft | 464 kts | 304° |
| 2026-04-30 18:07 | 55.17112 | 45.79253 | 33997 ft | 458 kts | 304° |
| 2026-04-30 18:08 | 55.22952 | 45.66028 | 34144 ft | 457 kts | 304° |
| 2026-04-30 18:10 | 55.38337 | 45.30751 | 34147 ft | 458 kts | 304° |
| 2026-04-30 18:11 | 55.51806 | 44.99430 | 34150 ft | 458 kts | 304° |
| 2026-04-30 18:12 | 55.56445 | 44.84897 | 34155 ft | 452 kts | 283° |
| 2026-04-30 18:13 | 55.57304 | 44.73985 | 34158 ft | 448 kts | 271° |
| 2026-04-30 18:14 | 55.57996 | 44.46393 | 34171 ft | 450 kts | 271° |
| 2026-04-30 18:15 | 55.58760 | 44.13118 | 34163 ft | 452 kts | 271° |
| 2026-04-30 18:16 | 55.59205 | 43.90991 | 34169 ft | 452 kts | 271° |
| 2026-04-30 18:17 | 55.59787 | 43.79942 | 34174 ft | 453 kts | 283° |
| 2026-04-30 18:17 | 55.62190 | 43.69665 | 34172 ft | 455 kts | 299° |
| 2026-04-30 18:18 | 55.63787 | 43.64805 | 34176 ft | 455 kts | 299° |
| 2026-04-30 18:18 | 55.66956 | 43.55090 | 34177 ft | 455 kts | 299° |
| 2026-04-30 18:19 | 55.70110 | 43.45350 | 34179 ft | 455 kts | 299° |
| 2026-04-30 18:19 | 55.73259 | 43.35591 | 34181 ft | 455 kts | 299° |
| 2026-04-30 18:20 | 55.76382 | 43.25873 | 34186 ft | 456 kts | 299° |
| 2026-04-30 18:20 | 55.79128 | 43.15771 | 34182 ft | 454 kts | 287° |
| 2026-04-30 18:21 | 55.80178 | 43.04740 | 34186 ft | 454 kts | 275° |
| 2026-04-30 18:21 | 55.80814 | 42.93547 | 34184 ft | 454 kts | 276° |
| 2026-04-30 18:22 | 55.81450 | 42.82438 | 34185 ft | 454 kts | 275° |
| 2026-04-30 18:22 | 55.82371 | 42.65673 | 34191 ft | 454 kts | 275° |
| 2026-04-30 18:23 | 55.82974 | 42.54503 | 34187 ft | 454 kts | 275° |
| 2026-04-30 18:23 | 55.83562 | 42.43308 | 34194 ft | 454 kts | 275° |
| 2026-04-30 18:24 | 55.84432 | 42.26544 | 34195 ft | 454 kts | 275° |
| 2026-04-30 18:25 | 55.84992 | 42.15351 | 34197 ft | 454 kts | 275° |
| 2026-04-30 18:25 | 55.85813 | 41.98632 | 34200 ft | 454 kts | 275° |
| 2026-04-30 18:26 | 55.86625 | 41.81841 | 34202 ft | 454 kts | 275° |
| 2026-04-30 18:27 | 55.86443 | 41.66821 | 34202 ft | 454 kts | 267° |
| 2026-04-30 18:28 | 55.85938 | 41.50057 | 34211 ft | 454 kts | 267° |
| 2026-04-30 18:28 | 55.85411 | 41.33222 | 34208 ft | 454 kts | 267° |
| 2026-04-30 18:29 | 55.84665 | 41.10766 | 34212 ft | 454 kts | 267° |
| 2026-04-30 18:30 | 55.83877 | 40.88301 | 34220 ft | 455 kts | 267° |
| 2026-04-30 18:31 | 55.83262 | 40.71526 | 34217 ft | 454 kts | 267° |
| 2026-04-30 18:32 | 55.82615 | 40.54700 | 34189 ft | 455 kts | 267° |
| 2026-04-30 18:32 | 55.82162 | 40.43517 | 33215 ft | 453 kts | 266° |
| 2026-04-30 18:33 | 55.81934 | 40.37926 | 32640 ft | 453 kts | 266° |
| 2026-04-30 18:33 | 55.81467 | 40.26742 | 31535 ft | 452 kts | 267° |
| 2026-04-30 18:33 | 55.81231 | 40.21190 | 30997 ft | 448 kts | 267° |
| 2026-04-30 18:34 | 55.80994 | 40.15666 | 30465 ft | 445 kts | 267° |
| 2026-04-30 18:34 | 55.80519 | 40.04792 | 29252 ft | 436 kts | 266° |
| 2026-04-30 18:34 | 55.80280 | 39.99446 | 28653 ft | 432 kts | 266° |
| 2026-04-30 18:35 | 55.80040 | 39.94145 | 28072 ft | 427 kts | 266° |
| 2026-04-30 18:35 | 55.79799 | 39.88899 | 27498 ft | 423 kts | 266° |
| 2026-04-30 18:35 | 55.79565 | 39.83805 | 27217 ft | 413 kts | 266° |
| 2026-04-30 18:36 | 55.79038 | 39.73866 | 27224 ft | 400 kts | 264° |
| 2026-04-30 18:36 | 55.78708 | 39.68953 | 27224 ft | 401 kts | 262° |
| 2026-04-30 18:36 | 55.77120 | 39.59238 | 26785 ft | 413 kts | 252° |
| 2026-04-30 18:37 | 55.76189 | 39.54421 | 26522 ft | 411 kts | 251° |
| 2026-04-30 18:37 | 55.75246 | 39.49624 | 26267 ft | 412 kts | 252° |
| 2026-04-30 18:37 | 55.74300 | 39.44830 | 26013 ft | 411 kts | 251° |
| 2026-04-30 18:37 | 55.73362 | 39.40060 | 25668 ft | 407 kts | 252° |
| 2026-04-30 18:38 | 55.72440 | 39.35344 | 25196 ft | 403 kts | 252° |
| 2026-04-30 18:38 | 55.71525 | 39.30653 | 24716 ft | 400 kts | 252° |
| 2026-04-30 18:38 | 55.70620 | 39.26022 | 24359 ft | 393 kts | 252° |
| 2026-04-30 18:38 | 55.69734 | 39.21516 | 24194 ft | 382 kts | 251° |
| 2026-04-30 18:39 | 55.68865 | 39.17104 | 23867 ft | 377 kts | 251° |
| 2026-04-30 18:39 | 55.68004 | 39.12741 | 23419 ft | 373 kts | 251° |
| 2026-04-30 18:39 | 55.67147 | 39.08408 | 22948 ft | 370 kts | 251° |
| 2026-04-30 18:39 | 55.66309 | 39.04171 | 22483 ft | 367 kts | 251° |
| 2026-04-30 18:40 | 55.65466 | 38.99917 | 22026 ft | 365 kts | 251° |
| 2026-04-30 18:40 | 55.64626 | 38.95694 | 21569 ft | 362 kts | 251° |
| 2026-04-30 18:40 | 55.63793 | 38.91508 | 21119 ft | 359 kts | 251° |
| 2026-04-30 18:40 | 55.62962 | 38.87338 | 20658 ft | 357 kts | 251° |
| 2026-04-30 18:41 | 55.62139 | 38.83218 | 20281 ft | 354 kts | 251° |
| 2026-04-30 18:41 | 55.61315 | 38.79108 | 20228 ft | 354 kts | 251° |
| 2026-04-30 18:41 | 55.60488 | 38.74988 | 20233 ft | 355 kts | 251° |
| 2026-04-30 18:41 | 55.59659 | 38.70873 | 20230 ft | 355 kts | 251° |
| 2026-04-30 18:42 | 55.58946 | 38.66709 | 20180 ft | 352 kts | 260° |
| 2026-04-30 18:42 | 55.58123 | 38.58223 | 19299 ft | 348 kts | 262° |
| 2026-04-30 18:42 | 55.57733 | 38.54018 | 18881 ft | 346 kts | 262° |
| 2026-04-30 18:45 | 55.53872 | 38.13423 | 14670 ft | 325 kts | 261° |
| 2026-04-30 18:45 | 55.53495 | 38.09548 | 14290 ft | 324 kts | 261° |
| 2026-04-30 18:45 | 55.53113 | 38.05641 | 13884 ft | 322 kts | 261° |
| 2026-04-30 18:46 | 55.52730 | 38.01751 | 13461 ft | 320 kts | 261° |
| 2026-04-30 18:46 | 55.52347 | 37.97894 | 13040 ft | 318 kts | 261° |
| 2026-04-30 18:46 | 55.51967 | 37.94067 | 12618 ft | 316 kts | 261° |
| 2026-04-30 18:46 | 55.51590 | 37.90261 | 12199 ft | 314 kts | 261° |
| 2026-04-30 18:47 | 55.51217 | 37.86476 | 11779 ft | 312 kts | 261° |
| 2026-04-30 18:47 | 55.50845 | 37.82720 | 11358 ft | 310 kts | 261° |
| 2026-04-30 18:47 | 55.50475 | 37.78991 | 10934 ft | 308 kts | 261° |
| 2026-04-30 18:47 | 55.50104 | 37.75275 | 10516 ft | 306 kts | 261° |
| 2026-04-30 18:48 | 55.49742 | 37.71688 | 10105 ft | 304 kts | 261° |
| 2026-04-30 18:48 | 55.49371 | 37.68065 | 9832 ft | 295 kts | 261° |
| 2026-04-30 18:48 | 55.49014 | 37.64566 | 9680 ft | 283 kts | 261° |
| 2026-04-30 18:48 | 55.48670 | 37.61178 | 9359 ft | 278 kts | 261° |
| 2026-04-30 18:49 | 55.48329 | 37.57844 | 8958 ft | 276 kts | 261° |
| 2026-04-30 18:49 | 55.47992 | 37.54533 | 8553 ft | 274 kts | 261° |
| 2026-04-30 18:49 | 55.47661 | 37.51278 | 8149 ft | 272 kts | 261° |
| 2026-04-30 18:49 | 55.47326 | 37.48006 | 7740 ft | 270 kts | 261° |
| 2026-04-30 18:50 | 55.46990 | 37.44766 | 7414 ft | 267 kts | 261° |
| 2026-04-30 18:50 | 55.46655 | 37.41549 | 7201 ft | 267 kts | 261° |
| 2026-04-30 18:50 | 55.46322 | 37.38331 | 6782 ft | 266 kts | 262° |
| 2026-04-30 18:50 | 55.45993 | 37.35158 | 6370 ft | 265 kts | 262° |
| 2026-04-30 18:51 | 55.45661 | 37.31953 | 5951 ft | 263 kts | 261° |
| 2026-04-30 18:51 | 55.45329 | 37.28779 | 5550 ft | 261 kts | 261° |
| 2026-04-30 18:51 | 55.44999 | 37.25646 | 5147 ft | 260 kts | 261° |
| 2026-04-30 18:51 | 55.44674 | 37.22561 | 4910 ft | 251 kts | 261° |
| 2026-04-30 18:52 | 55.44360 | 37.19606 | 4782 ft | 239 kts | 261° |
| 2026-04-30 18:52 | 55.44220 | 37.16778 | 4610 ft | 228 kts | 277° |
| 2026-04-30 18:52 | 55.44628 | 37.14129 | 4308 ft | 223 kts | 297° |
| 2026-04-30 18:52 | 55.45528 | 37.11941 | 3964 ft | 221 kts | 317° |
| 2026-04-30 18:53 | 55.46696 | 37.10189 | 3645 ft | 219 kts | 320° |
| 2026-04-30 18:53 | 55.47843 | 37.08482 | 3434 ft | 213 kts | 320° |
| 2026-04-30 18:53 | 55.48984 | 37.06844 | 3130 ft | 211 kts | 328° |
| 2026-04-30 18:53 | 55.50305 | 37.05809 | 2963 ft | 203 kts | 341° |
| 2026-04-30 18:54 | 55.51621 | 37.05054 | 2841 ft | 195 kts | 346° |
| 2026-04-30 18:54 | 55.52944 | 37.04981 | 2674 ft | 188 kts | 12° |
| 2026-04-30 18:54 | 55.54126 | 37.05913 | 2565 ft | 188 kts | 37° |
| 2026-04-30 18:54 | 55.54959 | 37.07649 | 2506 ft | 190 kts | 63° |
| 2026-04-30 18:55 | 55.55471 | 37.09816 | 2367 ft | 191 kts | 67° |
| 2026-04-30 18:55 | 55.56417 | 37.14014 | 1897 ft | 173 kts | 66° |
| 2026-04-30 18:55 | 55.56844 | 37.15900 | 1681 ft | 156 kts | 66° |
| 2026-04-30 18:56 | 55.57594 | 37.19217 | 1197 ft | 138 kts | 67° |
| 2026-04-30 18:56 | 55.57943 | 37.20772 | 957 ft | 131 kts | 68° |
| 2026-04-30 18:56 | 55.58257 | 37.22212 | 769 ft | 121 kts | 68° |
| 2026-04-30 18:57 | 55.58921 | 37.25381 | 1803 ft | 149 kts | 66° |
| 2026-04-30 18:57 | 55.59344 | 37.27210 | 2148 ft | 180 kts | 66° |
| 2026-04-30 18:57 | 55.59862 | 37.29460 | 2009 ft | 206 kts | 69° |
| 2026-04-30 18:58 | 55.59192 | 37.34188 | 2088 ft | 214 kts | 142° |
| 2026-04-30 18:58 | 55.57820 | 37.35187 | 2362 ft | 217 kts | 174° |
| 2026-04-30 18:58 | 55.56327 | 37.35587 | 2625 ft | 218 kts | 161° |
| 2026-04-30 18:59 | 55.53572 | 37.37889 | 2978 ft | 220 kts | 152° |
| 2026-04-30 19:00 | 55.49507 | 37.41628 | 3003 ft | 219 kts | 152° |
| 2026-04-30 19:00 | 55.48156 | 37.42875 | 3002 ft | 219 kts | 152° |
| 2026-04-30 19:00 | 55.45452 | 37.45371 | 3002 ft | 219 kts | 152° |
| 2026-04-30 19:01 | 55.42609 | 37.47199 | 2995 ft | 218 kts | 182° |
| 2026-04-30 19:01 | 55.41189 | 37.46423 | 2999 ft | 216 kts | 218° |
| 2026-04-30 19:02 | 55.40191 | 37.41826 | 3004 ft | 212 kts | 278° |
| 2026-04-30 19:02 | 55.40691 | 37.36713 | 3002 ft | 212 kts | 282° |
| 2026-04-30 19:03 | 55.41292 | 37.31627 | 3003 ft | 214 kts | 285° |
| 2026-04-30 19:03 | 55.42058 | 37.26413 | 3002 ft | 222 kts | 285° |
| 2026-04-30 19:04 | 55.42837 | 37.21166 | 3002 ft | 222 kts | 285° |
| 2026-04-30 19:04 | 55.43633 | 37.15949 | 2999 ft | 221 kts | 292° |
| 2026-04-30 19:05 | 55.45574 | 37.11880 | 3006 ft | 220 kts | 320° |
| 2026-04-30 19:05 | 55.47917 | 37.08385 | 3005 ft | 220 kts | 320° |
| 2026-04-30 19:06 | 55.50526 | 37.05680 | 3009 ft | 220 kts | 341° |
| 2026-04-30 19:06 | 55.51970 | 37.04827 | 3003 ft | 214 kts | 341° |
| 2026-04-30 19:06 | 55.54548 | 37.05962 | 2813 ft | 211 kts | 58° |
| 2026-04-30 19:07 | 55.55685 | 37.10765 | 2294 ft | 212 kts | 68° |
| 2026-04-30 19:07 | 55.56224 | 37.13164 | 2011 ft | 207 kts | 67° |
| 2026-04-30 19:08 | 55.57219 | 37.17563 | 1440 ft | 178 kts | 67° |
| 2026-04-30 19:08 | 55.58049 | 37.21232 | 999 ft | 146 kts | 68° |
| 2026-04-30 19:08 | 55.58420 | 37.22874 | 809 ft | 141 kts | 68° |
| 2026-04-30 19:09 | 55.59080 | 37.25790 | 669 ft | 90 kts | 69° |
| 2026-04-30 19:09 | 55.59273 | 37.26651 | 668 ft | 67 kts | 68° |
| 2026-04-30 19:09 | 55.59413 | 37.27275 | 671 ft | 42 kts | 66° |
| 2026-04-30 19:10 | 55.59566 | 37.27572 | 676 ft | 0 kts | 37° |
| 2026-04-30 19:10 | 55.59624 | 37.27652 | 680 ft | 20 kts | 38° |
| 2026-04-30 19:11 | 55.59647 | 37.27683 | 677 ft | 0 kts | 38° |
| 2026-04-30 19:11 | 55.59663 | 37.27704 | 678 ft | 10 kts | 36° |
| 2026-04-30 19:12 | 55.59737 | 37.27758 | 679 ft | 20 kts | 25° |
| 2026-04-30 19:12 | 55.59837 | 37.27830 | 679 ft | 8 kts | 20° |
| 2026-04-30 19:12 | 55.59870 | 37.27851 | 679 ft | 3 kts | 20° |
| 2026-04-30 19:13 | 55.59901 | 37.27866 | 679 ft | 3 kts | 15° |
| 2026-04-30 19:13 | 55.60012 | 37.27903 | 676 ft | 11 kts | 37° |
| 2026-04-30 19:13 | 55.60045 | 37.27930 | 680 ft | 0 kts | 24° |